Time,TemperatureF,DewpointF,PressureIn,WindDirection,WindDirectionDegrees,WindSpeedMPH,WindSpeedGustMPH,Humidity,HourlyPrecipIn,Conditions,Clouds,dailyrainin,SolarRadiationWatts/m^2,SoftwareType,DateUTC
2013-07-31 00:00:00,84.6,66.1,29.68,SE,143,10.0,17.0,54,0.00,,SKC,0.00,0.00,VWS V14.01,2013-07-31 05:00:00,
2013-07-31 00:02:00,84.6,66.1,29.68,SE,142,9.0,10.0,54,0.00,,SKC,0.00,0.00,VWS V14.00,2013-07-31 05:02:00,
2013-07-31 00:07:00,84.5,66.1,29.68,ESE,119,9.0,18.0,54,0.00,,SKC,0.00,0.00,VWS V14.00,2013-07-31 05:07:00,
2013-07-31 00:10:00,84.3,66.4,29.67,SE,136,11.0,18.0,55,0.00,,SKC,0.00,0.00,VWS V14.01,2013-07-31 05:10:00,
2013-07-31 00:12:00,84.3,66.4,29.67,SE,134,6.0,18.0,55,0.00,,SKC,0.00,0.00,VWS V14.00,2013-07-31 05:12:00,
2013-07-31 00:17:00,84.1,66.2,29.68,SE,146,15.0,20.0,55,0.00,,SKC,0.00,0.00,VWS V14.00,2013-07-31 05:17:00,
2013-07-31 00:20:00,83.9,66.0,29.68,SE,130,13.0,20.0,55,0.00,,SKC,0.00,0.00,VWS V14.01,2013-07-31 05:20:00,
2013-07-31 00:22:00,83.9,66.5,29.68,SE,131,5.0,11.0,56,0.00,,SKC,0.00,0.00,VWS V14.00,2013-07-31 05:22:00,
2013-07-31 00:27:00,83.7,66.3,29.68,SE,138,11.0,15.0,56,0.00,,SKC,0.00,0.00,VWS V14.00,2013-07-31 05:27:00,
2013-07-31 00:30:00,83.5,66.7,29.68,SE,134,12.0,15.0,57,0.00,,SKC,0.00,0.00,VWS V14.01,2013-07-31 05:30:00,
2013-07-31 00:32:00,83.5,66.7,29.68,SE,134,8.0,11.0,57,0.00,,SKC,0.00,0.00,VWS V14.00,2013-07-31 05:32:00,
2013-07-31 00:37:00,83.3,66.5,29.68,SSE,157,10.0,13.0,57,0.00,,SKC,0.00,0.00,VWS V14.00,2013-07-31 05:37:00,
2013-07-31 00:40:00,83.1,66.8,29.68,SE,137,9.0,15.0,58,0.00,,SKC,0.00,0.00,VWS V14.01,2013-07-31 05:40:00,
2013-07-31 00:42:00,83.1,66.8,29.68,SSE,159,6.0,9.0,58,0.00,,SKC,0.00,0.00,VWS V14.00,2013-07-31 05:42:00,
2013-07-31 00:47:00,82.9,66.6,29.68,SE,134,5.0,14.0,58,0.00,,SKC,0.00,0.00,VWS V14.00,2013-07-31 05:47:00,
2013-07-31 00:50:00,82.7,66.4,29.68,SE,130,5.0,14.0,58,0.00,,SKC,0.00,0.00,VWS V14.01,2013-07-31 05:50:00,
2013-07-31 00:52:00,82.7,66.4,29.68,SSE,155,8.0,11.0,58,0.00,,SKC,0.00,0.00,VWS V14.00,2013-07-31 05:52:00,
2013-07-31 00:57:00,82.5,66.7,29.68,SE,129,7.0,14.0,59,0.00,,SKC,0.00,0.00,VWS V14.00,2013-07-31 05:57:00,
2013-07-31 01:00:00,82.3,66.6,29.68,SE,140,4.0,14.0,59,0.00,,SKC,0.00,0.00,VWS V14.01,2013-07-31 06:00:00,
2013-07-31 01:02:00,82.3,66.6,29.67,SE,137,10.0,10.0,59,0.00,,SKC,0.00,0.00,VWS V14.00,2013-07-31 06:02:00,
2013-07-31 01:07:00,82.1,66.8,29.67,ESE,117,9.0,14.0,60,0.00,,SKC,0.00,0.00,VWS V14.00,2013-07-31 06:07:00,
2013-07-31 01:10:00,81.9,67.1,29.67,SSE,147,5.0,15.0,61,0.00,,SKC,0.00,0.00,VWS V14.01,2013-07-31 06:10:00,
2013-07-31 01:12:00,81.9,67.1,29.67,SE,146,5.0,7.0,61,0.00,,SKC,0.00,0.00,VWS V14.00,2013-07-31 06:12:00,
2013-07-31 01:17:00,81.7,67.4,29.68,SE,146,5.0,14.0,62,0.00,,SKC,0.00,0.00,VWS V14.00,2013-07-31 06:17:00,
2013-07-31 01:20:00,81.6,67.3,29.68,SSE,161,5.0,14.0,62,0.00,,SKC,0.00,0.00,VWS V14.01,2013-07-31 06:20:00,
2013-07-31 01:22:00,81.6,67.3,29.68,SSE,161,5.0,7.0,62,0.00,,SKC,0.00,0.00,VWS V14.00,2013-07-31 06:22:00,
2013-07-31 01:27:00,81.4,67.6,29.68,SE,141,5.0,11.0,63,0.00,,SKC,0.00,0.00,VWS V14.00,2013-07-31 06:27:00,
2013-07-31 01:30:00,81.2,67.4,29.68,ESE,109,9.0,12.0,63,0.00,,SKC,0.00,0.00,VWS V14.01,2013-07-31 06:30:00,
2013-07-31 01:32:00,81.2,67.4,29.68,SSE,157,4.0,8.0,63,0.00,,SKC,0.00,0.00,VWS V14.00,2013-07-31 06:32:00,
2013-07-31 01:37:00,81.1,67.8,29.68,SE,143,6.0,11.0,64,0.00,,SKC,0.00,0.00,VWS V14.00,2013-07-31 06:37:00,
2013-07-31 01:40:00,81.0,67.7,29.68,SSE,150,7.0,12.0,64,0.00,,SKC,0.00,0.00,VWS V14.01,2013-07-31 06:40:00,
2013-07-31 01:42:00,81.0,67.7,29.68,SSE,149,5.0,9.0,64,0.00,,SKC,0.00,0.00,VWS V14.00,2013-07-31 06:42:00,
2013-07-31 01:47:00,80.8,67.9,29.68,SE,134,6.0,11.0,65,0.00,,SKC,0.00,0.00,VWS V14.00,2013-07-31 06:47:00,
2013-07-31 01:50:00,80.7,68.3,29.68,SE,138,11.0,14.0,66,0.00,,SKC,0.00,0.00,VWS V14.01,2013-07-31 06:50:00,
2013-07-31 01:52:00,80.7,68.3,29.67,SE,136,6.0,9.0,66,0.00,,SKC,0.00,0.00,VWS V14.00,2013-07-31 06:52:00,
2013-07-31 01:57:00,80.6,68.2,29.68,SE,142,6.0,13.0,66,0.00,,SKC,0.00,0.00,VWS V14.00,2013-07-31 06:57:00,
2013-07-31 02:00:00,80.6,68.6,29.67,SE,143,7.0,17.0,67,0.00,,SKC,0.00,0.00,VWS V14.01,2013-07-31 07:00:00,
2013-07-31 02:02:00,80.6,68.6,29.68,SSW,201,8.0,15.0,67,0.00,,SKC,0.00,0.00,VWS V14.00,2013-07-31 07:02:00,
2013-07-31 02:07:00,80.5,68.5,29.67,South,173,6.0,15.0,67,0.00,,SKC,0.00,0.00,VWS V14.00,2013-07-31 07:07:00,
2013-07-31 02:10:00,80.5,68.5,29.67,SW,230,3.0,15.0,67,0.00,,SKC,0.00,0.00,VWS V14.01,2013-07-31 07:10:00,
2013-07-31 02:12:00,80.5,68.5,29.67,SW,227,4.0,4.0,67,0.00,,SKC,0.00,0.00,VWS V14.00,2013-07-31 07:12:00,
2013-07-31 02:17:00,80.4,68.9,29.67,SE,128,7.0,13.0,68,0.00,,SKC,0.00,0.00,VWS V14.00,2013-07-31 07:17:00,
2013-07-31 02:20:00,80.3,68.8,29.67,SSE,163,11.0,13.0,68,0.00,,SKC,0.00,0.00,VWS V14.01,2013-07-31 07:20:00,
2013-07-31 02:22:00,80.3,68.8,29.67,SSE,161,5.0,14.0,68,0.00,,SKC,0.00,0.00,VWS V14.00,2013-07-31 07:22:00,
2013-07-31 02:27:00,80.3,68.3,29.67,SSE,163,12.0,14.0,67,0.00,,SKC,0.00,0.00,VWS V14.00,2013-07-31 07:27:00,
2013-07-31 02:30:00,80.2,67.8,29.67,SE,141,8.0,17.0,66,0.00,,SKC,0.00,0.00,VWS V14.01,2013-07-31 07:30:00,
2013-07-31 02:32:00,80.2,67.8,29.67,SSE,148,7.0,9.0,66,0.00,,SKC,0.00,0.00,VWS V14.00,2013-07-31 07:32:00,
2013-07-31 02:37:00,80.2,67.8,29.67,SSE,166,8.0,14.0,66,0.00,,SKC,0.00,0.00,VWS V14.00,2013-07-31 07:37:00,
2013-07-31 02:40:00,80.2,67.4,29.67,SSW,199,13.0,16.0,65,0.00,,SKC,0.00,0.00,VWS V14.01,2013-07-31 07:40:00,
2013-07-31 02:42:00,80.2,67.4,29.67,SSE,152,10.0,11.0,65,0.00,,SKC,0.00,0.00,VWS V14.00,2013-07-31 07:42:00,
2013-07-31 02:47:00,80.1,66.8,29.67,SSE,153,8.0,18.0,64,0.00,,SKC,0.00,0.00,VWS V14.00,2013-07-31 07:47:00,
2013-07-31 02:50:00,80.0,66.3,29.67,SSE,159,13.0,19.0,63,0.00,,SKC,0.00,0.00,VWS V14.01,2013-07-31 07:50:00,
2013-07-31 02:52:00,80.0,66.3,29.67,SW,215,6.0,12.0,63,0.00,,SKC,0.00,0.00,VWS V14.00,2013-07-31 07:52:00,
2013-07-31 02:57:00,80.0,66.3,29.67,ESE,107,12.0,14.0,63,0.00,,SKC,0.00,0.00,VWS V14.00,2013-07-31 07:57:00,
2013-07-31 03:00:00,80.0,66.3,29.67,SSE,165,5.0,14.0,63,0.00,,SKC,0.00,0.00,VWS V14.01,2013-07-31 08:00:00,
2013-07-31 03:02:00,80.0,66.3,29.67,SSE,163,6.0,7.0,63,0.00,,SKC,0.00,0.00,VWS V14.00,2013-07-31 08:02:00,
2013-07-31 03:07:00,79.9,65.7,29.67,SSE,155,4.0,14.0,62,0.00,,SKC,0.00,0.00,VWS V14.00,2013-07-31 08:07:00,
2013-07-31 03:10:00,79.9,65.7,29.67,South,171,4.0,14.0,62,0.00,,SKC,0.00,0.00,VWS V14.01,2013-07-31 08:10:00,
2013-07-31 03:12:00,79.9,65.7,29.67,SSW,209,8.0,8.0,62,0.00,,SKC,0.00,0.00,VWS V14.00,2013-07-31 08:12:00,
2013-07-31 03:17:00,79.9,65.3,29.67,SSE,155,6.0,11.0,61,0.00,,SKC,0.00,0.00,VWS V14.00,2013-07-31 08:17:00,
2013-07-31 03:20:00,79.8,64.7,29.67,SE,138,9.0,16.0,60,0.00,,SKC,0.00,0.00,VWS V14.01,2013-07-31 08:20:00,
2013-07-31 03:22:00,79.8,65.2,29.67,SSE,152,10.0,13.0,61,0.00,,SKC,0.00,0.00,VWS V14.00,2013-07-31 08:22:00,
2013-07-31 03:27:00,79.8,65.2,29.67,SSE,153,10.0,14.0,61,0.00,,SKC,0.00,0.00,VWS V14.00,2013-07-31 08:27:00,
2013-07-31 03:30:00,79.8,65.2,29.67,South,171,6.0,14.0,61,0.00,,SKC,0.00,0.00,VWS V14.01,2013-07-31 08:30:00,
2013-07-31 03:32:00,79.8,65.2,29.66,SE,130,2.0,11.0,61,0.00,,SKC,0.00,0.00,VWS V14.00,2013-07-31 08:32:00,
2013-07-31 03:37:00,79.7,65.5,29.66,SSE,166,2.0,12.0,62,0.00,,SKC,0.00,0.00,VWS V14.00,2013-07-31 08:37:00,
2013-07-31 03:40:00,79.5,65.8,29.66,SSE,152,1.0,14.0,63,0.00,,SKC,0.00,0.00,VWS V14.01,2013-07-31 08:40:00,
2013-07-31 03:42:00,79.6,65.9,29.66,SSE,153,5.0,6.0,63,0.00,,SKC,0.00,0.00,VWS V14.00,2013-07-31 08:42:00,
2013-07-31 03:47:00,79.4,66.2,29.66,South,175,8.0,14.0,64,0.00,,SKC,0.00,0.00,VWS V14.00,2013-07-31 08:47:00,
2013-07-31 03:50:00,79.3,66.1,29.66,SW,216,2.0,14.0,64,0.00,,SKC,0.00,0.00,VWS V14.01,2013-07-31 08:50:00,
2013-07-31 03:52:00,79.3,66.1,29.66,SSE,163,6.0,7.0,64,0.00,,SKC,0.00,0.00,VWS V14.00,2013-07-31 08:52:00,
2013-07-31 03:57:00,79.2,66.4,29.66,SW,225,13.0,14.0,65,0.00,,SKC,0.00,0.00,VWS V14.00,2013-07-31 08:57:00,
2013-07-31 04:00:00,79.0,66.2,29.66,SSE,157,7.0,14.0,65,0.00,,SKC,0.00,0.00,VWS V14.01,2013-07-31 09:00:00,
2013-07-31 04:02:00,79.0,66.2,29.66,SSE,153,5.0,8.0,65,0.00,,SKC,0.00,0.00,VWS V14.00,2013-07-31 09:02:00,
2013-07-31 04:07:00,78.9,66.2,29.66,SSE,147,7.0,13.0,65,0.00,,SKC,0.00,0.00,VWS V14.00,2013-07-31 09:07:00,
2013-07-31 04:10:00,78.8,66.1,29.66,SSE,149,5.0,13.0,65,0.00,,SKC,0.00,0.00,VWS V14.01,2013-07-31 09:10:00,
2013-07-31 04:12:00,78.8,66.1,29.66,SSE,162,9.0,9.0,65,0.00,,SKC,0.00,0.00,VWS V14.00,2013-07-31 09:12:00,
2013-07-31 04:17:00,78.7,65.5,29.66,SSE,168,5.0,14.0,64,0.00,,SKC,0.00,0.00,VWS V14.00,2013-07-31 09:17:00,
2013-07-31 04:20:00,78.7,65.1,29.66,South,177,7.0,14.0,63,0.00,,SKC,0.00,0.00,VWS V14.01,2013-07-31 09:20:00,
2013-07-31 04:22:00,78.7,64.6,29.66,SSW,194,3.0,8.0,62,0.00,,SKC,0.00,0.00,VWS V14.00,2013-07-31 09:22:00,
2013-07-31 04:27:00,78.7,64.6,29.66,SSE,157,5.0,15.0,62,0.00,,SKC,0.00,0.00,VWS V14.00,2013-07-31 09:27:00,
2013-07-31 04:30:00,78.7,65.1,29.66,South,181,5.0,15.0,63,0.00,,SKC,0.00,0.00,VWS V14.01,2013-07-31 09:30:00,
2013-07-31 04:32:00,78.6,65.0,29.66,South,189,8.0,9.0,63,0.00,,SKC,0.00,0.00,VWS V14.00,2013-07-31 09:32:00,
2013-07-31 04:37:00,78.6,65.0,29.66,SE,146,5.0,11.0,63,0.00,,SKC,0.00,0.00,VWS V14.00,2013-07-31 09:37:00,
2013-07-31 04:40:00,78.5,64.4,29.66,SSE,148,10.0,15.0,62,0.00,,SKC,0.00,0.00,VWS V14.01,2013-07-31 09:40:00,
2013-07-31 04:42:00,78.5,64.9,29.66,South,170,8.0,12.0,63,0.00,,SKC,0.00,0.00,VWS V14.00,2013-07-31 09:42:00,
2013-07-31 04:47:00,78.5,64.9,29.66,WSW,242,2.0,12.0,63,0.00,,SKC,0.00,0.00,VWS V14.00,2013-07-31 09:47:00,
2013-07-31 04:50:00,78.4,64.8,29.66,SSW,196,8.0,15.0,63,0.00,,SKC,0.00,0.00,VWS V14.01,2013-07-31 09:50:00,
2013-07-31 04:52:00,78.4,64.8,29.66,SSW,207,3.0,9.0,63,0.00,,SKC,0.00,0.00,VWS V14.00,2013-07-31 09:52:00,
2013-07-31 04:57:00,78.3,65.1,29.66,SSE,153,6.0,13.0,64,0.00,,SKC,0.00,0.00,VWS V14.00,2013-07-31 09:57:00,
2013-07-31 05:00:00,78.2,65.0,29.65,SSE,148,1.0,13.0,64,0.00,,SKC,0.00,0.00,VWS V14.01,2013-07-31 10:00:00,
2013-07-31 05:02:00,78.2,65.0,29.65,SE,145,8.0,9.0,64,0.00,,SKC,0.00,0.00,VWS V14.00,2013-07-31 10:02:00,
2013-07-31 05:07:00,78.1,65.4,29.66,SSE,151,0.0,18.0,65,0.00,,SKC,0.00,0.00,VWS V14.00,2013-07-31 10:07:00,
2013-07-31 05:10:00,78.0,65.7,29.65,SE,137,5.0,18.0,66,0.00,,SKC,0.00,0.00,VWS V14.01,2013-07-31 10:10:00,
2013-07-31 05:12:00,78.0,65.7,29.65,South,170,2.0,9.0,66,0.00,,SKC,0.00,0.00,VWS V14.00,2013-07-31 10:12:00,
2013-07-31 05:17:00,77.8,66.0,29.66,SSW,204,12.0,19.0,67,0.00,,SKC,0.00,0.00,VWS V14.00,2013-07-31 10:17:00,
2013-07-31 05:20:00,77.7,65.9,29.65,South,171,2.0,19.0,67,0.00,,SKC,0.00,0.00,VWS V14.01,2013-07-31 10:20:00,
2013-07-31 05:22:00,77.7,65.9,29.65,South,175,8.0,8.0,67,0.00,,SKC,0.00,0.00,VWS V14.00,2013-07-31 10:22:00,
2013-07-31 05:27:00,77.6,66.2,29.65,South,171,5.0,15.0,68,0.00,,SKC,0.00,0.00,VWS V14.00,2013-07-31 10:27:00,
2013-07-31 05:30:00,77.5,66.5,29.66,SSE,163,8.0,15.0,69,0.00,,SKC,0.00,0.00,VWS V14.01,2013-07-31 10:30:00,
2013-07-31 05:32:00,77.4,66.4,29.66,SSE,157,5.0,8.0,69,0.00,,SKC,0.00,0.00,VWS V14.00,2013-07-31 10:32:00,
2013-07-31 05:37:00,77.2,66.2,29.66,SSW,196,6.0,14.0,69,0.00,,SKC,0.00,0.00,VWS V14.00,2013-07-31 10:37:00,
2013-07-31 05:40:00,77.1,65.7,29.66,South,183,6.0,14.0,68,0.00,,SKC,0.00,0.00,VWS V14.01,2013-07-31 10:40:00,
2013-07-31 05:42:00,77.1,65.7,29.66,SSE,156,5.0,11.0,68,0.00,,SKC,0.00,0.00,VWS V14.00,2013-07-31 10:42:00,
2013-07-31 05:47:00,77.1,65.7,29.67,SSW,196,3.0,14.0,68,0.00,,SKC,0.00,0.00,VWS V14.00,2013-07-31 10:47:00,
2013-07-31 05:50:00,77.0,66.1,29.66,SW,217,5.0,15.0,69,0.00,,SKC,0.00,0.00,VWS V14.01,2013-07-31 10:50:00,
2013-07-31 05:52:00,77.0,66.1,29.66,South,178,9.0,10.0,69,0.00,,SKC,0.00,0.00,VWS V14.00,2013-07-31 10:52:00,
2013-07-31 05:57:00,76.9,66.4,29.66,South,182,1.0,15.0,70,0.00,,SKC,0.00,0.00,VWS V14.00,2013-07-31 10:57:00,
2013-07-31 06:00:00,76.8,66.3,29.67,SSE,150,7.0,15.0,70,0.00,,SKC,0.00,0.00,VWS V14.01,2013-07-31 11:00:00,
2013-07-31 06:02:00,76.8,66.3,29.67,SE,142,14.0,14.0,70,0.00,,SKC,0.00,0.00,VWS V14.00,2013-07-31 11:02:00,
2013-07-31 06:07:00,76.7,66.6,29.67,SW,225,2.0,15.0,71,0.00,,SKC,0.00,0.00,VWS V14.00,2013-07-31 11:07:00,
2013-07-31 06:10:00,76.6,66.5,29.67,SSW,202,4.0,15.0,71,0.00,,SKC,0.00,0.00,VWS V14.01,2013-07-31 11:10:00,
2013-07-31 06:12:00,76.6,66.5,29.67,SSW,196,3.0,6.0,71,0.00,,SKC,0.00,0.00,VWS V14.00,2013-07-31 11:12:00,
2013-07-31 06:17:00,76.5,66.8,29.67,SSW,213,5.0,11.0,72,0.00,,SKC,0.00,0.00,VWS V14.00,2013-07-31 11:17:00,
2013-07-31 06:20:00,76.4,66.7,29.67,SE,144,5.0,15.0,72,0.00,,SKC,0.00,0.00,VWS V14.01,2013-07-31 11:20:00,
2013-07-31 06:22:00,76.4,66.7,29.67,SE,144,1.0,5.0,72,0.00,,SKC,0.00,0.00,VWS V14.00,2013-07-31 11:22:00,
2013-07-31 06:27:00,76.3,66.6,29.67,WSW,253,18.0,18.0,72,0.00,,SKC,0.00,0.00,VWS V14.00,2013-07-31 11:27:00,
2013-07-31 06:30:00,76.3,66.6,29.67,SW,233,6.0,18.0,72,0.00,,SKC,0.00,0.00,VWS V14.01,2013-07-31 11:30:00,
2013-07-31 06:32:00,76.3,66.6,29.67,South,180,9.0,13.0,72,0.00,,SKC,0.00,0.00,VWS V14.00,2013-07-31 11:32:00,
2013-07-31 06:37:00,76.2,66.1,29.68,SSW,202,5.0,13.0,71,0.00,,SKC,0.00,0.00,VWS V14.00,2013-07-31 11:37:00,
2013-07-31 06:40:00,76.1,66.0,29.68,SSW,194,3.0,13.0,71,0.00,,SKC,0.00,0.00,VWS V14.01,2013-07-31 11:40:00,
2013-07-31 06:42:00,76.1,66.0,29.68,SSW,194,4.0,4.0,71,0.00,,SKC,0.00,0.00,VWS V14.00,2013-07-31 11:42:00,
2013-07-31 06:47:00,76.1,66.0,29.68,WNW,286,7.0,7.0,71,0.00,,SKC,0.00,0.00,VWS V14.00,2013-07-31 11:47:00,
2013-07-31 06:50:00,76.0,65.9,29.68,WSW,246,6.0,13.0,71,0.00,,SKC,0.00,0.00,VWS V14.01,2013-07-31 11:50:00,
2013-07-31 06:52:00,76.0,65.9,29.68,WSW,253,4.0,10.0,71,0.00,,SKC,0.00,0.00,VWS V14.00,2013-07-31 11:52:00,
2013-07-31 06:57:00,76.0,65.5,29.69,West,264,3.0,13.0,70,0.00,,SKC,0.00,5.00,VWS V14.00,2013-07-31 11:57:00,
2013-07-31 07:00:00,76.0,65.5,29.69,West,276,2.0,13.0,70,0.00,,SKC,0.00,7.00,VWS V14.01,2013-07-31 12:00:00,
2013-07-31 07:02:00,76.0,65.5,29.69,West,276,4.0,5.0,70,0.00,,SKC,0.00,9.00,VWS V14.00,2013-07-31 12:02:00,
2013-07-31 07:07:00,76.0,65.5,29.69,West,273,6.0,8.0,70,0.00,,SKC,0.00,14.00,VWS V14.00,2013-07-31 12:07:00,
2013-07-31 07:10:00,75.9,65.0,29.69,West,273,6.0,8.0,69,0.00,,SKC,0.00,19.00,VWS V14.01,2013-07-31 12:10:00,
2013-07-31 07:12:00,75.9,65.4,29.69,West,273,4.0,6.0,70,0.00,,SKC,0.00,21.00,VWS V14.00,2013-07-31 12:12:00,
2013-07-31 07:17:00,76.0,65.1,29.69,West,266,4.0,8.0,69,0.00,,SKC,0.00,26.00,VWS V14.00,2013-07-31 12:17:00,
2013-07-31 07:20:00,76.0,65.1,29.69,West,266,0.0,8.0,69,0.00,,SKC,0.00,30.00,VWS V14.01,2013-07-31 12:20:00,
2013-07-31 07:22:00,76.0,65.1,29.69,West,266,0.0,0.0,69,0.00,,SKC,0.00,30.00,VWS V14.00,2013-07-31 12:22:00,
2013-07-31 07:27:00,76.1,65.2,29.69,West,266,0.0,4.0,69,0.00,,SKC,0.00,35.00,VWS V14.00,2013-07-31 12:27:00,
2013-07-31 07:30:00,76.2,64.9,29.69,West,266,3.0,7.0,68,0.00,,SKC,0.00,37.00,VWS V14.01,2013-07-31 12:30:00,
2013-07-31 07:32:00,76.2,64.9,29.70,West,266,1.0,2.0,68,0.00,,SKC,0.00,39.00,VWS V14.00,2013-07-31 12:32:00,
2013-07-31 07:37:00,76.3,65.0,29.70,SE,141,1.0,9.0,68,0.00,,SKC,0.00,42.00,VWS V14.00,2013-07-31 12:37:00,
2013-07-31 07:40:00,76.4,65.1,29.70,SE,134,6.0,9.0,68,0.00,,SKC,0.00,47.00,VWS V14.01,2013-07-31 12:40:00,
2013-07-31 07:42:00,76.5,65.2,29.70,SE,134,0.0,5.0,68,0.00,,SKC,0.00,47.00,VWS V14.00,2013-07-31 12:42:00,
2013-07-31 07:47:00,76.5,64.7,29.70,WNW,291,5.0,8.0,67,0.00,,SKC,0.00,53.00,VWS V14.00,2013-07-31 12:47:00,
2013-07-31 07:50:00,76.6,65.3,29.71,WNW,291,2.0,8.0,68,0.00,,SKC,0.00,56.00,VWS V14.01,2013-07-31 12:50:00,
2013-07-31 07:52:00,76.6,64.8,29.71,WNW,291,2.0,4.0,67,0.00,,SKC,0.00,58.00,VWS V14.00,2013-07-31 12:52:00,
2013-07-31 07:57:00,76.7,64.9,29.71,WNW,294,0.0,6.0,67,0.00,,SKC,0.00,63.00,VWS V14.00,2013-07-31 12:57:00,
2013-07-31 08:00:00,76.7,64.9,29.71,WNW,294,4.0,6.0,67,0.00,,SKC,0.00,69.00,VWS V14.01,2013-07-31 13:00:00,
2013-07-31 08:02:00,76.7,64.9,29.71,WNW,297,4.0,6.0,67,0.00,,SKC,0.00,69.00,VWS V14.00,2013-07-31 13:02:00,
2013-07-31 08:07:00,76.8,65.0,29.71,WNW,298,2.0,7.0,67,0.00,,SKC,0.00,76.00,VWS V14.00,2013-07-31 13:07:00,
2013-07-31 08:10:00,76.9,64.2,29.71,NE,55,3.0,7.0,65,0.00,,SKC,0.00,83.00,VWS V14.01,2013-07-31 13:10:00,
2013-07-31 08:12:00,76.9,64.2,29.72,NE,55,2.0,3.0,65,0.00,,SKC,0.00,84.00,VWS V14.00,2013-07-31 13:12:00,
2013-07-31 08:17:00,77.1,64.0,29.71,SSE,148,7.0,11.0,64,0.00,,SKC,0.00,93.00,VWS V14.00,2013-07-31 13:17:00,
2013-07-31 08:20:00,77.2,64.1,29.72,WNW,284,2.0,11.0,64,0.00,,SKC,0.00,102.00,VWS V14.01,2013-07-31 13:20:00,
2013-07-31 08:22:00,77.2,64.1,29.72,SE,129,11.0,11.0,64,0.00,,SKC,0.00,102.00,VWS V14.00,2013-07-31 13:22:00,
2013-07-31 08:27:00,77.3,64.2,29.72,WSW,238,2.0,11.0,64,0.00,,SKC,0.00,113.00,VWS V14.00,2013-07-31 13:27:00,
2013-07-31 08:30:00,77.4,64.3,29.72,WNW,283,4.0,11.0,64,0.00,,SKC,0.00,121.00,VWS V14.01,2013-07-31 13:30:00,
2013-07-31 08:32:00,77.5,64.4,29.72,WNW,283,2.0,6.0,64,0.00,,SKC,0.00,123.00,VWS V14.00,2013-07-31 13:32:00,
2013-07-31 08:37:00,77.6,64.0,29.72,West,281,5.0,7.0,63,0.00,,SKC,0.00,134.00,VWS V14.00,2013-07-31 13:37:00,
2013-07-31 08:40:00,77.8,64.2,29.73,West,281,0.0,7.0,63,0.00,,SKC,0.00,144.00,VWS V14.01,2013-07-31 13:40:00,
2013-07-31 08:42:00,77.8,63.8,29.73,SW,232,5.0,5.0,62,0.00,,SKC,0.00,146.00,VWS V14.00,2013-07-31 13:42:00,
2013-07-31 08:47:00,78.0,63.9,29.73,WSW,246,6.0,8.0,62,0.00,,SKC,0.00,165.00,VWS V14.00,2013-07-31 13:47:00,
2013-07-31 08:50:00,78.2,64.1,29.73,West,277,5.0,14.0,62,0.00,,SKC,0.00,178.00,VWS V14.01,2013-07-31 13:50:00,
2013-07-31 08:52:00,78.2,64.1,29.73,West,265,4.0,7.0,62,0.00,,SKC,0.00,179.00,VWS V14.00,2013-07-31 13:52:00,
2013-07-31 08:57:00,78.3,63.8,29.73,West,259,4.0,11.0,61,0.00,,SKC,0.00,195.00,VWS V14.00,2013-07-31 13:57:00,
2013-07-31 09:00:00,78.5,64.4,29.73,SSW,197,3.0,11.0,62,0.00,,SKC,0.00,211.00,VWS V14.01,2013-07-31 14:00:00,
2013-07-31 09:02:00,78.5,64.0,29.73,West,265,4.0,8.0,61,0.00,,SKC,0.00,213.00,VWS V14.00,2013-07-31 14:02:00,
2013-07-31 09:07:00,78.7,63.7,29.73,West,264,4.0,8.0,60,0.00,,SKC,0.00,236.00,VWS V14.00,2013-07-31 14:07:00,
2013-07-31 09:10:00,78.8,63.8,29.74,WSW,250,7.0,8.0,60,0.00,,SKC,0.00,243.00,VWS V14.01,2013-07-31 14:10:00,
2013-07-31 09:12:00,78.9,63.8,29.74,West,260,5.0,8.0,60,0.00,,SKC,0.00,243.00,VWS V14.00,2013-07-31 14:12:00,
2013-07-31 09:17:00,79.0,63.9,29.74,West,261,4.0,8.0,60,0.00,,SKC,0.00,267.00,VWS V14.00,2013-07-31 14:17:00,
2013-07-31 09:20:00,79.3,64.2,29.73,West,260,2.0,8.0,60,0.00,,SKC,0.00,295.00,VWS V14.01,2013-07-31 14:20:00,
2013-07-31 09:22:00,79.3,64.2,29.73,West,260,2.0,3.0,60,0.00,,SKC,0.00,295.00,VWS V14.00,2013-07-31 14:22:00,
2013-07-31 09:27:00,79.6,64.0,29.73,West,259,4.0,8.0,59,0.00,,SKC,0.00,313.00,VWS V14.00,2013-07-31 14:27:00,
2013-07-31 09:30:00,79.9,64.3,29.74,SE,135,6.0,13.0,59,0.00,,SKC,0.00,320.00,VWS V14.01,2013-07-31 14:30:00,
2013-07-31 09:32:00,79.9,63.8,29.74,SE,135,4.0,6.0,58,0.00,,SKC,0.00,327.00,VWS V14.00,2013-07-31 14:32:00,
2013-07-31 09:37:00,80.2,64.1,29.74,SE,142,5.0,8.0,58,0.00,,SKC,0.00,383.00,VWS V14.00,2013-07-31 14:37:00,
2013-07-31 09:40:00,80.5,63.9,29.74,SE,146,7.0,8.0,57,0.00,,SKC,0.00,388.00,VWS V14.01,2013-07-31 14:40:00,
2013-07-31 09:42:00,80.6,64.0,29.74,SE,146,6.0,9.0,57,0.00,,SKC,0.00,404.00,VWS V14.00,2013-07-31 14:42:00,
2013-07-31 09:47:00,80.9,64.2,29.74,WSW,237,3.0,9.0,57,0.00,,SKC,0.00,424.00,VWS V14.00,2013-07-31 14:47:00,
2013-07-31 09:50:00,81.2,63.5,29.73,SSE,155,5.0,12.0,55,0.00,,SKC,0.00,438.00,VWS V14.01,2013-07-31 14:50:00,
2013-07-31 09:52:00,81.3,63.6,29.73,SSE,155,2.0,7.0,55,0.00,,SKC,0.00,441.00,VWS V14.00,2013-07-31 14:52:00,
2013-07-31 09:57:00,81.7,63.5,29.73,WSW,244,6.0,11.0,54,0.00,,SKC,0.00,413.00,VWS V14.00,2013-07-31 14:57:00,
2013-07-31 10:00:00,82.0,63.7,29.73,SW,230,3.0,11.0,54,0.00,,SKC,0.00,469.00,VWS V14.01,2013-07-31 15:00:00,
2013-07-31 10:02:00,82.0,63.7,29.73,SW,230,0.0,3.0,54,0.00,,SKC,0.00,478.00,VWS V14.00,2013-07-31 15:02:00,
2013-07-31 10:07:00,82.5,63.1,29.74,WSW,254,5.0,10.0,52,0.00,,SKC,0.00,570.00,VWS V14.00,2013-07-31 15:07:00,
2013-07-31 10:10:00,82.8,62.8,29.73,WSW,254,7.0,10.0,51,0.00,,SKC,0.00,452.00,VWS V14.01,2013-07-31 15:10:00,
2013-07-31 10:12:00,82.8,62.8,29.73,WSW,254,4.0,7.0,51,0.00,,SKC,0.00,452.00,VWS V14.00,2013-07-31 15:12:00,
2013-07-31 10:17:00,83.0,62.5,29.73,West,262,6.0,10.0,50,0.00,,SKC,0.00,459.00,VWS V14.00,2013-07-31 15:17:00,
2013-07-31 10:22:00,83.5,62.3,29.74,SW,232,5.0,7.0,49,0.00,,SKC,0.00,462.00,VWS V14.00,2013-07-31 15:22:00,
2013-07-31 10:27:00,83.9,62.7,29.74,WSW,248,5.0,11.0,49,0.00,,SKC,0.00,476.00,VWS V14.00,2013-07-31 15:27:00,
2013-07-31 10:30:00,84.1,62.3,29.74,WSW,244,3.0,11.0,48,0.00,,SKC,0.00,563.00,VWS V14.01,2013-07-31 15:30:00,
2013-07-31 10:32:00,84.3,61.9,29.74,WSW,246,6.0,7.0,47,0.00,,SKC,0.00,547.00,VWS V14.00,2013-07-31 15:32:00,
2013-07-31 10:37:00,84.9,61.2,29.74,South,183,5.0,8.0,45,0.00,,SKC,0.00,645.00,VWS V14.00,2013-07-31 15:37:00,
2013-07-31 10:40:00,85.6,60.6,29.74,South,190,6.0,9.0,43,0.00,,SKC,0.00,664.00,VWS V14.01,2013-07-31 15:40:00,
2013-07-31 10:42:00,85.7,60.7,29.74,SSW,196,1.0,6.0,43,0.00,,SKC,0.00,680.00,VWS V14.00,2013-07-31 15:42:00,
2013-07-31 10:47:00,86.7,60.2,29.75,South,190,3.0,7.0,41,0.00,,SKC,0.00,652.00,VWS V14.00,2013-07-31 15:47:00,
2013-07-31 10:50:00,87.3,59.3,29.74,SSW,205,4.0,8.0,39,0.00,,SKC,0.00,726.00,VWS V14.01,2013-07-31 15:50:00,
2013-07-31 10:52:00,87.4,60.1,29.74,SSW,205,4.0,6.0,40,0.00,,SKC,0.00,758.00,VWS V14.00,2013-07-31 15:52:00,
2013-07-31 10:57:00,88.0,60.7,29.74,SSW,194,2.0,8.0,40,0.00,,SKC,0.00,698.00,VWS V14.00,2013-07-31 15:57:00,
2013-07-31 11:00:00,88.5,59.7,29.74,SSW,192,5.0,8.0,38,0.00,,SKC,0.00,772.00,VWS V14.01,2013-07-31 16:00:00,
2013-07-31 11:02:00,88.6,59.8,29.74,SSW,192,4.0,6.0,38,0.00,,SKC,0.00,686.00,VWS V14.00,2013-07-31 16:02:00,
2013-07-31 11:07:00,88.9,60.0,29.74,South,186,3.0,9.0,38,0.00,,SKC,0.00,691.00,VWS V14.00,2013-07-31 16:07:00,
2013-07-31 11:10:00,89.2,60.3,29.74,South,182,4.0,9.0,38,0.00,,SKC,0.00,605.00,VWS V14.01,2013-07-31 16:10:00,
2013-07-31 11:12:00,89.2,60.3,29.74,South,182,3.0,5.0,38,0.00,,SKC,0.00,633.00,VWS V14.00,2013-07-31 16:12:00,
2013-07-31 11:17:00,89.3,60.4,29.73,South,182,5.0,7.0,38,0.00,,SKC,0.00,664.00,VWS V14.00,2013-07-31 16:17:00,
2013-07-31 11:20:00,89.8,59.3,29.74,South,182,2.0,7.0,36,0.00,,SKC,0.00,661.00,VWS V14.01,2013-07-31 16:20:00,
2013-07-31 11:22:00,89.9,59.4,29.74,South,182,5.0,6.0,36,0.00,,SKC,0.00,657.00,VWS V14.00,2013-07-31 16:22:00,
2013-07-31 11:27:00,90.1,58.8,29.73,South,175,2.0,11.0,35,0.00,,SKC,0.00,742.00,VWS V14.00,2013-07-31 16:27:00,
2013-07-31 11:30:00,90.5,59.1,29.73,South,175,0.0,11.0,35,0.00,,SKC,0.00,722.00,VWS V14.01,2013-07-31 16:30:00,
2013-07-31 11:32:00,90.5,59.1,29.73,South,175,2.0,5.0,35,0.00,,SKC,0.00,729.00,VWS V14.00,2013-07-31 16:32:00,
2013-07-31 11:37:00,90.9,58.7,29.73,South,175,6.0,7.0,34,0.00,,SKC,0.00,684.00,VWS V14.00,2013-07-31 16:37:00,
2013-07-31 11:40:00,91.3,59.0,29.73,South,177,6.0,9.0,34,0.00,,SKC,0.00,626.00,VWS V14.01,2013-07-31 16:40:00,
2013-07-31 11:42:00,91.3,58.2,29.73,South,178,7.0,8.0,33,0.00,,SKC,0.00,626.00,VWS V14.00,2013-07-31 16:42:00,
2013-07-31 11:47:00,91.4,57.4,29.73,SSW,202,6.0,10.0,32,0.00,,SKC,0.00,619.00,VWS V14.00,2013-07-31 16:47:00,
2013-07-31 11:50:00,91.5,57.5,29.73,SSW,205,7.0,10.0,32,0.00,,SKC,0.00,698.00,VWS V14.01,2013-07-31 16:50:00,
2013-07-31 11:52:00,91.4,56.5,29.73,SSW,205,2.0,7.0,31,0.00,,SKC,0.00,680.00,VWS V14.00,2013-07-31 16:52:00,
2013-07-31 11:57:00,91.5,57.5,29.73,SSW,205,1.0,7.0,32,0.00,,SKC,0.00,823.00,VWS V14.00,2013-07-31 16:57:00,
2013-07-31 12:00:00,92.1,57.2,29.73,SSW,205,5.0,8.0,31,0.00,,SKC,0.00,708.00,VWS V14.01,2013-07-31 17:00:00,
2013-07-31 12:02:00,92.2,58.1,29.73,SSW,205,2.0,6.0,32,0.00,,SKC,0.00,708.00,VWS V14.00,2013-07-31 17:02:00,
2013-07-31 12:07:00,92.4,57.4,29.72,SSW,205,6.0,8.0,31,0.00,,SKC,0.00,737.00,VWS V14.00,2013-07-31 17:07:00,
2013-07-31 12:10:00,92.7,57.7,29.73,SSW,205,4.0,8.0,31,0.00,,SKC,0.00,747.00,VWS V14.01,2013-07-31 17:10:00,
2013-07-31 12:12:00,92.7,57.7,29.73,SSW,205,4.0,5.0,31,0.00,,SKC,0.00,747.00,VWS V14.00,2013-07-31 17:12:00,
2013-07-31 12:17:00,93.4,58.3,29.72,SSW,205,2.0,6.0,31,0.00,,SKC,0.00,916.00,VWS V14.00,2013-07-31 17:17:00,
2013-07-31 12:20:00,93.7,57.6,29.72,SSW,205,2.0,7.0,30,0.00,,SKC,0.00,937.00,VWS V14.01,2013-07-31 17:20:00,
2013-07-31 12:22:00,93.8,57.7,29.72,SSW,205,0.0,2.0,30,0.00,,SKC,0.00,937.00,VWS V14.00,2013-07-31 17:22:00,
2013-07-31 12:27:00,94.2,58.0,29.72,SSW,207,4.0,9.0,30,0.00,,SKC,0.00,898.00,VWS V14.00,2013-07-31 17:27:00,
2013-07-31 12:30:00,94.4,58.2,29.72,SW,218,5.0,10.0,30,0.00,,SKC,0.00,752.00,VWS V14.01,2013-07-31 17:30:00,
2013-07-31 12:32:00,94.4,58.2,29.72,SW,218,5.0,7.0,30,0.00,,SKC,0.00,703.00,VWS V14.00,2013-07-31 17:32:00,
2013-07-31 12:37:00,94.3,57.2,29.71,SW,217,0.0,8.0,29,0.00,,SKC,0.00,624.00,VWS V14.00,2013-07-31 17:37:00,
2013-07-31 12:40:00,94.4,58.2,29.71,SW,217,4.0,8.0,30,0.00,,SKC,0.00,633.00,VWS V14.01,2013-07-31 17:40:00,
2013-07-31 12:42:00,94.4,58.2,29.72,SW,217,2.0,4.0,30,0.00,,SKC,0.00,650.00,VWS V14.00,2013-07-31 17:42:00,
2013-07-31 12:47:00,94.6,57.5,29.71,SW,217,3.0,6.0,29,0.00,,SKC,0.00,765.00,VWS V14.00,2013-07-31 17:47:00,
2013-07-31 12:50:00,94.9,57.7,29.71,SSW,208,5.0,9.0,29,0.00,,SKC,0.00,1093.00,VWS V14.01,2013-07-31 17:50:00,
2013-07-31 12:52:00,94.9,57.7,29.71,SSW,208,2.0,5.0,29,0.00,,SKC,0.00,1014.00,VWS V14.00,2013-07-31 17:52:00,
2013-07-31 12:57:00,95.1,57.9,29.70,SSW,208,5.0,5.0,29,0.00,,SKC,0.00,983.00,VWS V14.00,2013-07-31 17:57:00,
2013-07-31 13:00:00,95.5,57.2,29.70,SSW,208,0.0,6.0,28,0.00,,SKC,0.00,740.00,VWS V14.01,2013-07-31 18:00:00,
2013-07-31 13:02:00,95.6,57.3,29.70,SSW,208,7.0,7.0,28,0.00,,SKC,0.00,835.00,VWS V14.00,2013-07-31 18:02:00,
2013-07-31 13:07:00,95.9,56.6,29.70,SSW,208,3.0,7.0,27,0.00,,SKC,0.00,1109.00,VWS V14.00,2013-07-31 18:07:00,
2013-07-31 13:10:00,96.0,57.7,29.69,SSW,208,5.0,7.0,28,0.00,,SKC,0.00,1005.00,VWS V14.01,2013-07-31 18:10:00,
2013-07-31 13:12:00,96.1,56.7,29.70,SSW,208,3.0,5.0,27,0.00,,SKC,0.00,1023.00,VWS V14.00,2013-07-31 18:12:00,
2013-07-31 13:17:00,96.7,57.2,29.70,SSW,208,4.0,9.0,27,0.00,,SKC,0.00,840.00,VWS V14.00,2013-07-31 18:17:00,
2013-07-31 13:20:00,96.8,57.3,29.69,SSW,209,1.0,9.0,27,0.00,,SKC,0.00,865.00,VWS V14.01,2013-07-31 18:20:00,
2013-07-31 13:22:00,96.8,57.3,29.70,SSW,209,0.0,3.0,27,0.00,,SKC,0.00,796.00,VWS V14.00,2013-07-31 18:22:00,
2013-07-31 13:27:00,96.9,56.4,29.70,SSW,207,3.0,7.0,26,0.00,,SKC,0.00,986.00,VWS V14.00,2013-07-31 18:27:00,
2013-07-31 13:30:00,96.8,56.3,29.69,SSW,204,4.0,9.0,26,0.00,,SKC,0.00,1004.00,VWS V14.01,2013-07-31 18:30:00,
2013-07-31 13:33:00,96.8,56.3,29.69,SSW,204,4.0,5.0,26,0.00,,SKC,0.00,819.00,VWS V14.00,2013-07-31 18:33:00,
2013-07-31 13:38:00,97.2,56.6,29.69,SSW,204,2.0,6.0,26,0.00,,SKC,0.00,1060.00,VWS V14.00,2013-07-31 18:38:00,
2013-07-31 13:40:00,97.3,56.7,29.69,SSW,204,1.0,7.0,26,0.00,,SKC,0.00,891.00,VWS V14.01,2013-07-31 18:40:00,
2013-07-31 13:43:00,97.3,56.7,29.68,SSW,204,3.0,3.0,26,0.00,,SKC,0.00,749.00,VWS V14.00,2013-07-31 18:43:00,
2013-07-31 13:48:00,97.4,56.8,29.69,SSW,204,2.0,9.0,26,0.00,,SKC,0.00,1034.00,VWS V14.00,2013-07-31 18:48:00,
2013-07-31 13:50:00,97.7,57.0,29.68,SSW,204,4.0,9.0,26,0.00,,SKC,0.00,882.00,VWS V14.01,2013-07-31 18:50:00,
2013-07-31 13:53:00,97.8,57.1,29.69,SSW,204,1.0,6.0,26,0.00,,SKC,0.00,786.00,VWS V14.00,2013-07-31 18:53:00,
2013-07-31 13:57:00,97.8,57.1,29.68,SSW,202,2.0,8.0,26,0.00,,SKC,0.00,796.00,VWS V14.00,2013-07-31 18:57:00,
2013-07-31 14:00:00,98.1,57.4,29.68,SSW,202,3.0,8.0,26,0.00,,SKC,0.00,740.00,VWS V14.01,2013-07-31 19:00:00,
2013-07-31 14:02:00,98.2,57.5,29.67,SSW,200,4.0,9.0,26,0.00,,SKC,0.00,740.00,VWS V14.00,2013-07-31 19:02:00,
2013-07-31 14:07:00,98.3,57.6,29.68,SSW,200,2.0,9.0,26,0.00,,SKC,0.00,807.00,VWS V14.00,2013-07-31 19:07:00,
2013-07-31 14:10:00,98.5,57.7,29.67,SSW,200,3.0,9.0,26,0.00,,SKC,0.00,786.00,VWS V14.01,2013-07-31 19:10:00,
2013-07-31 14:12:00,98.6,57.8,29.67,SSW,200,3.0,3.0,26,0.00,,SKC,0.00,696.00,VWS V14.00,2013-07-31 19:12:00,
2013-07-31 14:17:00,98.6,57.8,29.68,SSW,200,4.0,7.0,26,0.00,,SKC,0.00,958.00,VWS V14.00,2013-07-31 19:17:00,
2013-07-31 14:20:00,98.5,57.7,29.67,SSW,200,0.0,7.0,26,0.00,,SKC,0.00,956.00,VWS V14.01,2013-07-31 19:20:00,
2013-07-31 14:22:00,98.6,58.9,29.67,SSW,200,3.0,6.0,27,0.00,,SKC,0.00,956.00,VWS V14.00,2013-07-31 19:22:00,
2013-07-31 14:27:00,99.1,58.2,29.67,SSW,200,4.0,6.0,26,0.00,,SKC,0.00,956.00,VWS V14.00,2013-07-31 19:27:00,
2013-07-31 14:30:00,99.5,58.6,29.67,SSW,200,1.0,6.0,26,0.00,,SKC,0.00,947.00,VWS V14.01,2013-07-31 19:30:00,
2013-07-31 14:32:00,99.6,58.7,29.67,SSW,200,3.0,5.0,26,0.00,,SKC,0.00,946.00,VWS V14.00,2013-07-31 19:32:00,
2013-07-31 14:37:00,99.8,57.7,29.67,SSW,198,5.0,7.0,25,0.00,,SKC,0.00,937.00,VWS V14.00,2013-07-31 19:37:00,
2013-07-31 14:40:00,99.7,57.7,29.66,SSW,197,3.0,7.0,25,0.00,,SKC,0.00,940.00,VWS V14.01,2013-07-31 19:40:00,
2013-07-31 14:42:00,99.7,58.7,29.66,SSW,196,5.0,8.0,26,0.00,,SKC,0.00,939.00,VWS V14.00,2013-07-31 19:42:00,
2013-07-31 14:47:00,99.6,58.7,29.66,SSW,196,3.0,8.0,26,0.00,,SKC,0.00,937.00,VWS V14.00,2013-07-31 19:47:00,
2013-07-31 14:50:00,99.6,58.7,29.65,SSW,196,3.0,8.0,26,0.00,,SKC,0.00,935.00,VWS V14.01,2013-07-31 19:50:00,
2013-07-31 14:52:00,99.7,58.7,29.65,SSW,196,3.0,4.0,26,0.00,,SKC,0.00,935.00,VWS V14.00,2013-07-31 19:52:00,
2013-07-31 14:57:00,100.1,58.0,29.66,SSW,196,4.0,7.0,25,0.00,,SKC,0.00,932.00,VWS V14.00,2013-07-31 19:57:00,
2013-07-31 15:00:00,100.4,58.2,29.66,South,184,6.0,12.0,25,0.00,,SKC,0.00,926.00,VWS V14.01,2013-07-31 20:00:00,
2013-07-31 15:02:00,100.3,58.2,29.66,South,184,3.0,9.0,25,0.00,,SKC,0.00,925.00,VWS V14.00,2013-07-31 20:02:00,
2013-07-31 15:07:00,100.3,58.2,29.66,South,184,3.0,9.0,25,0.00,,SKC,0.00,921.00,VWS V14.00,2013-07-31 20:07:00,
2013-07-31 15:10:00,100.8,58.6,29.66,South,184,5.0,9.0,25,0.00,,SKC,0.00,914.00,VWS V14.01,2013-07-31 20:10:00,
2013-07-31 15:12:00,100.8,58.6,29.65,South,184,6.0,6.0,25,0.00,,SKC,0.00,911.00,VWS V14.00,2013-07-31 20:12:00,
2013-07-31 15:17:00,101.2,57.8,29.65,South,184,0.0,8.0,24,0.00,,SKC,0.00,902.00,VWS V14.00,2013-07-31 20:17:00,
2013-07-31 15:20:00,101.4,57.9,29.65,South,184,5.0,8.0,24,0.00,,SKC,0.00,896.00,VWS V14.01,2013-07-31 20:20:00,
2013-07-31 15:22:00,101.4,59.1,29.65,South,184,4.0,6.0,25,0.00,,SKC,0.00,896.00,VWS V14.00,2013-07-31 20:22:00,
2013-07-31 15:27:00,101.0,58.7,29.64,South,184,3.0,7.0,25,0.00,,SKC,0.00,888.00,VWS V14.00,2013-07-31 20:27:00,
2013-07-31 15:30:00,101.0,58.7,29.64,South,184,3.0,7.0,25,0.00,,SKC,0.00,881.00,VWS V14.01,2013-07-31 20:30:00,
2013-07-31 15:32:00,101.1,58.8,29.64,South,184,2.0,3.0,25,0.00,,SKC,0.00,877.00,VWS V14.00,2013-07-31 20:32:00,
2013-07-31 15:37:00,101.1,58.8,29.64,SSW,199,0.0,8.0,25,0.00,,SKC,0.00,861.00,VWS V14.00,2013-07-31 20:37:00,
2013-07-31 15:40:00,101.5,58.0,29.64,SSW,199,0.0,8.0,24,0.00,,SKC,0.00,856.00,VWS V14.01,2013-07-31 20:40:00,
2013-07-31 15:42:00,101.6,59.2,29.64,SSW,199,1.0,4.0,25,0.00,,SKC,0.00,851.00,VWS V14.00,2013-07-31 20:42:00,
2013-07-31 15:47:00,101.7,58.2,29.63,SE,142,2.0,12.0,24,0.00,,SKC,0.00,844.00,VWS V14.00,2013-07-31 20:47:00,
2013-07-31 15:50:00,101.2,58.9,29.63,SE,142,2.0,12.0,25,0.00,,SKC,0.00,835.00,VWS V14.01,2013-07-31 20:50:00,
2013-07-31 15:52:00,101.1,58.8,29.63,SE,142,5.0,7.0,25,0.00,,SKC,0.00,833.00,VWS V14.00,2013-07-31 20:52:00,
2013-07-31 15:57:00,100.5,58.3,29.63,SE,138,0.0,11.0,25,0.00,,SKC,0.00,824.00,VWS V14.00,2013-07-31 20:57:00,
2013-07-31 16:00:00,100.4,59.3,29.63,SE,138,6.0,11.0,26,0.00,,SKC,0.00,830.00,VWS V14.01,2013-07-31 21:00:00,
2013-07-31 16:02:00,100.4,58.2,29.63,SE,138,2.0,6.0,25,0.00,,SKC,0.00,775.00,VWS V14.00,2013-07-31 21:02:00,
2013-07-31 16:07:00,100.6,58.4,29.63,SE,138,5.0,11.0,25,0.00,,SKC,0.00,803.00,VWS V14.00,2013-07-31 21:07:00,
2013-07-31 16:10:00,100.9,58.7,29.62,SE,138,7.0,11.0,25,0.00,,SKC,0.00,803.00,VWS V14.01,2013-07-31 21:10:00,
2013-07-31 16:12:00,100.9,58.7,29.62,SE,138,0.0,7.0,25,0.00,,SKC,0.00,803.00,VWS V14.00,2013-07-31 21:12:00,
2013-07-31 16:18:00,101.2,58.9,29.62,SE,138,0.0,7.0,25,0.00,,SKC,0.00,791.00,VWS V14.00,2013-07-31 21:18:00,
2013-07-31 16:20:00,101.5,59.2,29.61,SE,138,9.0,9.0,25,0.00,,SKC,0.00,782.00,VWS V14.01,2013-07-31 21:20:00,
2013-07-31 16:22:00,101.6,59.2,29.61,SE,138,1.0,7.0,25,0.00,,SKC,0.00,780.00,VWS V14.00,2013-07-31 21:22:00,
2013-07-31 16:28:00,101.7,58.2,29.61,SE,125,4.0,13.0,24,0.00,,SKC,0.00,768.00,VWS V14.00,2013-07-31 21:28:00,
2013-07-31 16:30:00,101.5,58.0,29.61,SE,125,6.0,14.0,24,0.00,,SKC,0.00,758.00,VWS V14.01,2013-07-31 21:30:00,
2013-07-31 16:33:00,101.5,58.0,29.61,SE,125,1.0,8.0,24,0.00,,SKC,0.00,756.00,VWS V14.00,2013-07-31 21:33:00,
2013-07-31 16:38:00,101.3,59.0,29.62,SE,125,6.0,9.0,25,0.00,,SKC,0.00,738.00,VWS V14.00,2013-07-31 21:38:00,
2013-07-31 16:40:00,101.4,59.1,29.61,SE,125,0.0,9.0,25,0.00,,SKC,0.00,735.00,VWS V14.01,2013-07-31 21:40:00,
2013-07-31 16:43:00,101.4,59.1,29.60,SE,125,5.0,5.0,25,0.00,,SKC,0.00,735.00,VWS V14.00,2013-07-31 21:43:00,
2013-07-31 16:48:00,101.9,58.3,29.61,SE,125,0.0,7.0,24,0.00,,SKC,0.00,719.00,VWS V14.00,2013-07-31 21:48:00,
2013-07-31 16:50:00,102.0,58.4,29.61,SE,125,4.0,8.0,24,0.00,,SKC,0.00,712.00,VWS V14.01,2013-07-31 21:50:00,
2013-07-31 16:53:00,102.0,59.6,29.61,SE,125,9.0,14.0,25,0.00,,SKC,0.00,710.00,VWS V14.00,2013-07-31 21:53:00,
2013-07-31 16:58:00,101.8,58.3,29.61,ESE,122,9.0,14.0,24,0.00,,SKC,0.00,687.00,VWS V14.00,2013-07-31 21:58:00,
2013-07-31 17:00:00,101.3,57.8,29.60,ESE,122,0.0,14.0,24,0.00,,SKC,0.00,673.00,VWS V14.01,2013-07-31 22:00:00,
2013-07-31 17:03:00,101.3,59.0,29.60,ESE,122,2.0,5.0,25,0.00,,SKC,0.00,671.00,VWS V14.00,2013-07-31 22:03:00,
2013-07-31 17:08:00,101.3,57.8,29.60,ESE,119,6.0,12.0,24,0.00,,SKC,0.00,656.00,VWS V14.00,2013-07-31 22:08:00,
2013-07-31 17:10:00,101.2,58.9,29.59,ESE,119,11.0,13.0,25,0.00,,SKC,0.00,624.00,VWS V14.01,2013-07-31 22:10:00,
2013-07-31 17:13:00,101.2,58.9,29.59,ESE,119,7.0,9.0,25,0.00,,SKC,0.00,638.00,VWS V14.00,2013-07-31 22:13:00,
2013-07-31 17:18:00,101.2,58.9,29.59,ESE,119,5.0,12.0,25,0.00,,SKC,0.00,589.00,VWS V14.00,2013-07-31 22:18:00,
2013-07-31 17:20:00,101.3,59.0,29.59,ESE,119,11.0,14.0,25,0.00,,SKC,0.00,575.00,VWS V14.01,2013-07-31 22:20:00,
2013-07-31 17:23:00,101.2,58.9,29.59,ESE,119,4.0,9.0,25,0.00,,SKC,0.00,596.00,VWS V14.00,2013-07-31 22:23:00,
2013-07-31 17:28:00,101.1,58.8,29.59,ESE,119,5.0,9.0,25,0.00,,SKC,0.00,592.00,VWS V14.00,2013-07-31 22:28:00,
2013-07-31 17:30:00,101.2,58.9,29.59,ESE,119,8.0,12.0,25,0.00,,SKC,0.00,584.00,VWS V14.01,2013-07-31 22:30:00,
2013-07-31 17:33:00,101.2,58.9,29.59,ESE,119,5.0,9.0,25,0.00,,SKC,0.00,582.00,VWS V14.00,2013-07-31 22:33:00,
2013-07-31 17:38:00,101.2,58.9,29.58,ESE,119,4.0,11.0,25,0.00,,SKC,0.00,552.00,VWS V14.00,2013-07-31 22:38:00,
2013-07-31 17:40:00,101.1,58.8,29.58,ESE,119,4.0,11.0,25,0.00,,SKC,0.00,550.00,VWS V14.01,2013-07-31 22:40:00,
2013-07-31 17:43:00,101.1,58.8,29.58,ESE,119,2.0,6.0,25,0.00,,SKC,0.00,548.00,VWS V14.00,2013-07-31 22:43:00,
2013-07-31 17:48:00,100.9,58.7,29.59,ESE,119,6.0,13.0,25,0.00,,SKC,0.00,527.00,VWS V14.00,2013-07-31 22:48:00,
2013-07-31 17:50:00,100.9,58.7,29.58,ESE,119,5.0,13.0,25,0.00,,SKC,0.00,515.00,VWS V14.01,2013-07-31 22:50:00,
2013-07-31 17:53:00,100.9,58.7,29.58,ESE,119,5.0,7.0,25,0.00,,SKC,0.00,513.00,VWS V14.00,2013-07-31 22:53:00,
2013-07-31 17:58:00,101.0,57.6,29.58,ESE,119,4.0,11.0,24,0.00,,SKC,0.00,489.00,VWS V14.00,2013-07-31 22:58:00,
2013-07-31 18:00:00,101.0,58.7,29.58,ESE,119,6.0,11.0,25,0.00,,SKC,0.00,464.00,VWS V14.01,2013-07-31 23:00:00,
2013-07-31 18:03:00,101.0,58.7,29.58,ESE,119,2.0,8.0,25,0.00,,SKC,0.00,462.00,VWS V14.00,2013-07-31 23:03:00,
2013-07-31 18:07:00,100.9,58.7,29.57,ESE,119,0.0,8.0,25,0.00,,SKC,0.00,468.00,VWS V14.00,2013-07-31 23:07:00,
2013-07-31 18:10:00,100.8,58.6,29.57,ESE,119,4.0,11.0,25,0.00,,SKC,0.00,448.00,VWS V14.01,2013-07-31 23:10:00,
2013-07-31 18:12:00,100.8,58.6,29.57,ESE,119,4.0,9.0,25,0.00,,SKC,0.00,446.00,VWS V14.00,2013-07-31 23:12:00,
2013-07-31 18:18:00,100.8,58.6,29.57,ESE,119,4.0,11.0,25,0.00,,SKC,0.00,432.00,VWS V14.00,2013-07-31 23:18:00,
2013-07-31 18:20:00,100.7,58.5,29.57,ESE,119,0.0,11.0,25,0.00,,SKC,0.00,420.00,VWS V14.01,2013-07-31 23:20:00,
2013-07-31 18:22:00,100.7,58.5,29.57,ESE,119,6.0,7.0,25,0.00,,SKC,0.00,417.00,VWS V14.00,2013-07-31 23:22:00,
2013-07-31 18:27:00,100.6,58.4,29.57,ESE,119,7.0,12.0,25,0.00,,SKC,0.00,397.00,VWS V14.00,2013-07-31 23:27:00,
2013-07-31 18:30:00,100.4,59.3,29.57,ESE,119,6.0,13.0,26,0.00,,SKC,0.00,383.00,VWS V14.01,2013-07-31 23:30:00,
2013-07-31 18:33:00,100.3,59.2,29.56,ESE,119,4.0,7.0,26,0.00,,SKC,0.00,362.00,VWS V14.00,2013-07-31 23:33:00,
2013-07-31 18:37:00,100.3,59.2,29.56,ESE,119,2.0,8.0,26,0.00,,SKC,0.00,339.00,VWS V14.00,2013-07-31 23:37:00,
2013-07-31 18:40:00,100.1,59.1,29.56,ESE,119,7.0,9.0,26,0.00,,SKC,0.00,322.00,VWS V14.01,2013-07-31 23:40:00,
2013-07-31 18:42:00,100.1,59.1,29.56,ESE,119,4.0,8.0,26,0.00,,SKC,0.00,315.00,VWS V14.00,2013-07-31 23:42:00,
2013-07-31 18:48:00,99.9,58.9,29.56,ESE,119,7.0,8.0,26,0.00,,SKC,0.00,299.00,VWS V14.00,2013-07-31 23:48:00,
2013-07-31 18:50:00,99.6,58.7,29.55,ESE,119,7.0,8.0,26,0.00,,SKC,0.00,272.00,VWS V14.01,2013-07-31 23:50:00,
2013-07-31 18:52:00,99.5,58.6,29.55,ESE,119,1.0,6.0,26,0.00,,SKC,0.00,269.00,VWS V14.00,2013-07-31 23:52:00,
2013-07-31 18:57:00,99.4,58.5,29.56,ESE,119,4.0,8.0,26,0.00,,SKC,0.00,243.00,VWS V14.00,2013-07-31 23:57:00,
2013-07-31 19:00:00,99.1,58.2,29.56,ESE,119,5.0,8.0,26,0.00,,SKC,0.00,223.00,VWS V14.01,2013-08-01 00:00:00,
2013-07-31 19:02:00,99.1,58.2,29.56,ESE,119,1.0,6.0,26,0.00,,SKC,0.00,216.00,VWS V14.00,2013-08-01 00:02:00,
2013-07-31 19:07:00,98.9,58.1,29.55,ESE,119,4.0,7.0,26,0.00,,SKC,0.00,213.00,VWS V14.00,2013-08-01 00:07:00,
2013-07-31 19:10:00,98.8,58.0,29.56,ESE,119,5.0,7.0,26,0.00,,SKC,0.00,214.00,VWS V14.01,2013-08-01 00:10:00,
2013-07-31 19:12:00,98.8,58.0,29.56,ESE,119,5.0,7.0,26,0.00,,SKC,0.00,213.00,VWS V14.00,2013-08-01 00:12:00,
2013-07-31 19:17:00,98.8,60.0,29.56,ESE,119,5.0,9.0,28,0.00,,SKC,0.00,178.00,VWS V14.00,2013-08-01 00:17:00,
2013-07-31 19:20:00,98.6,60.9,29.56,ESE,119,6.0,9.0,29,0.00,,SKC,0.00,169.00,VWS V14.01,2013-08-01 00:20:00,
2013-07-31 19:22:00,98.6,60.9,29.56,ESE,119,6.0,7.0,29,0.00,,SKC,0.00,163.00,VWS V14.00,2013-08-01 00:22:00,
2013-07-31 19:27:00,98.0,61.3,29.55,ESE,107,2.0,13.0,30,0.00,,SKC,0.00,148.00,VWS V14.00,2013-08-01 00:27:00,
2013-07-31 19:30:00,97.7,61.0,29.56,ESE,107,5.0,13.0,30,0.00,,SKC,0.00,148.00,VWS V14.01,2013-08-01 00:30:00,
2013-07-31 19:32:00,97.6,61.0,29.56,ESE,107,4.0,8.0,30,0.00,,SKC,0.00,148.00,VWS V14.00,2013-08-01 00:32:00,
2013-07-31 19:37:00,97.2,61.5,29.57,ESE,107,2.0,11.0,31,0.00,,SKC,0.00,132.00,VWS V14.00,2013-08-01 00:37:00,
2013-07-31 19:40:00,97.0,61.4,29.57,ESE,107,5.0,11.0,31,0.00,,SKC,0.00,118.00,VWS V14.01,2013-08-01 00:40:00,
2013-07-31 19:42:00,96.9,61.3,29.57,ESE,107,6.0,8.0,31,0.00,,SKC,0.00,114.00,VWS V14.00,2013-08-01 00:42:00,
2013-07-31 19:47:00,96.6,61.0,29.57,ESE,107,4.0,11.0,31,0.00,,SKC,0.00,77.00,VWS V14.00,2013-08-01 00:47:00,
2013-07-31 19:50:00,96.3,61.7,29.57,ESE,107,5.0,11.0,32,0.00,,SKC,0.00,77.00,VWS V14.01,2013-08-01 00:50:00,
2013-07-31 19:52:00,96.2,61.6,29.57,ESE,107,2.0,5.0,32,0.00,,SKC,0.00,74.00,VWS V14.00,2013-08-01 00:52:00,
2013-07-31 19:57:00,95.7,61.2,29.57,ESE,107,5.0,11.0,32,0.00,,SKC,0.00,53.00,VWS V14.00,2013-08-01 00:57:00,
2013-07-31 20:00:00,95.3,61.7,29.57,ESE,107,4.0,12.0,33,0.00,,SKC,0.00,39.00,VWS V14.01,2013-08-01 01:00:00,
2013-07-31 20:02:00,95.2,61.6,29.57,ESE,107,5.0,7.0,33,0.00,,SKC,0.00,37.00,VWS V14.00,2013-08-01 01:02:00,
2013-07-31 20:07:00,94.9,61.3,29.57,ESE,107,6.0,8.0,33,0.00,,SKC,0.00,30.00,VWS V14.00,2013-08-01 01:07:00,
2013-07-31 20:10:00,94.6,61.9,29.57,ESE,107,7.0,8.0,34,0.00,,SKC,0.00,26.00,VWS V14.01,2013-08-01 01:10:00,
2013-07-31 20:12:00,94.5,61.8,29.57,ESE,107,2.0,6.0,34,0.00,,SKC,0.00,26.00,VWS V14.00,2013-08-01 01:12:00,
2013-07-31 20:17:00,94.2,61.6,29.58,ESE,107,0.0,8.0,34,0.00,,SKC,0.00,21.00,VWS V14.00,2013-08-01 01:17:00,
2013-07-31 20:20:00,93.9,61.3,29.58,ESE,107,5.0,9.0,34,0.00,,SKC,0.00,14.00,VWS V14.01,2013-08-01 01:20:00,
2013-07-31 20:22:00,93.8,61.2,29.58,ESE,107,6.0,6.0,34,0.00,,SKC,0.00,12.00,VWS V14.00,2013-08-01 01:22:00,
2013-07-31 20:27:00,93.6,61.8,29.58,ESE,107,4.0,8.0,35,0.00,,SKC,0.00,7.00,VWS V14.00,2013-08-01 01:27:00,
2013-07-31 20:30:00,93.3,61.6,29.58,ESE,107,1.0,8.0,35,0.00,,SKC,0.00,0.00,VWS V14.01,2013-08-01 01:30:00,
2013-07-31 20:33:00,93.3,61.6,29.58,ESE,107,1.0,1.0,35,0.00,,SKC,0.00,0.00,VWS V14.00,2013-08-01 01:33:00,
2013-07-31 20:38:00,92.8,61.2,29.59,ESE,107,4.0,7.0,35,0.00,,SKC,0.00,0.00,VWS V14.00,2013-08-01 01:38:00,
2013-07-31 20:40:00,92.6,61.0,29.58,ESE,107,5.0,7.0,35,0.00,,SKC,0.00,0.00,VWS V14.01,2013-08-01 01:40:00,
2013-07-31 20:43:00,92.6,61.0,29.58,ESE,107,4.0,4.0,35,0.00,,SKC,0.00,0.00,VWS V14.00,2013-08-01 01:43:00,
2013-07-31 20:48:00,92.2,60.6,29.58,ESE,107,4.0,7.0,35,0.00,,SKC,0.00,0.00,VWS V14.00,2013-08-01 01:48:00,
2013-07-31 20:50:00,91.9,60.4,29.58,ESE,107,4.0,7.0,35,0.00,,SKC,0.00,0.00,VWS V14.01,2013-08-01 01:50:00,
2013-07-31 20:53:00,91.9,60.4,29.58,ESE,107,4.0,6.0,35,0.00,,SKC,0.00,0.00,VWS V14.00,2013-08-01 01:53:00,
2013-07-31 20:58:00,91.6,60.1,29.58,ESE,107,0.0,6.0,35,0.00,,SKC,0.00,0.00,VWS V14.00,2013-08-01 01:58:00,
2013-07-31 21:00:00,91.4,60.7,29.58,ESE,107,0.0,6.0,36,0.00,,SKC,0.00,0.00,VWS V14.01,2013-08-01 02:00:00,
2013-07-31 21:03:00,91.3,60.6,29.58,ESE,107,0.0,6.0,36,0.00,,SKC,0.00,0.00,VWS V14.00,2013-08-01 02:03:00,
2013-07-31 21:08:00,91.1,60.5,29.58,ESE,107,2.0,7.0,36,0.00,,SKC,0.00,0.00,VWS V14.00,2013-08-01 02:08:00,
2013-07-31 21:10:00,90.9,60.3,29.59,ESE,107,4.0,7.0,36,0.00,,SKC,0.00,0.00,VWS V14.01,2013-08-01 02:10:00,
2013-07-31 21:13:00,90.8,60.2,29.59,ESE,107,5.0,6.0,36,0.00,,SKC,0.00,0.00,VWS V14.00,2013-08-01 02:13:00,
2013-07-31 21:18:00,90.4,60.6,29.59,ESE,107,4.0,6.0,37,0.00,,SKC,0.00,0.00,VWS V14.00,2013-08-01 02:18:00,
2013-07-31 21:20:00,90.2,60.4,29.59,ESE,107,0.0,6.0,37,0.00,,SKC,0.00,0.00,VWS V14.01,2013-08-01 02:20:00,
2013-07-31 21:23:00,90.2,60.4,29.59,ESE,107,2.0,7.0,37,0.00,,SKC,0.00,0.00,VWS V14.00,2013-08-01 02:23:00,
2013-07-31 21:28:00,90.0,60.3,29.59,ESE,107,6.0,8.0,37,0.00,,SKC,0.00,0.00,VWS V14.00,2013-08-01 02:28:00,
2013-07-31 21:30:00,89.8,60.1,29.60,ESE,107,5.0,8.0,37,0.00,,SKC,0.00,0.00,VWS V14.01,2013-08-01 02:30:00,
2013-07-31 21:33:00,89.7,60.0,29.59,ESE,107,5.0,7.0,37,0.00,,SKC,0.00,0.00,VWS V14.00,2013-08-01 02:33:00,
2013-07-31 21:38:00,89.5,59.8,29.59,ESE,107,6.0,8.0,37,0.00,,SKC,0.00,0.00,VWS V14.00,2013-08-01 02:38:00,
2013-07-31 21:40:00,89.4,59.7,29.60,ESE,107,7.0,8.0,37,0.00,,SKC,0.00,0.00,VWS V14.01,2013-08-01 02:40:00,
2013-07-31 21:43:00,89.3,59.6,29.59,ESE,107,8.0,8.0,37,0.00,,SKC,0.00,0.00,VWS V14.00,2013-08-01 02:43:00,
2013-07-31 21:48:00,89.2,59.5,29.60,ESE,107,6.0,8.0,37,0.00,,SKC,0.00,0.00,VWS V14.00,2013-08-01 02:48:00,
2013-07-31 21:50:00,89.0,60.1,29.60,ESE,107,7.0,11.0,38,0.00,,SKC,0.00,0.00,VWS V14.01,2013-08-01 02:50:00,
2013-07-31 21:53:00,89.0,60.1,29.60,ESE,107,4.0,8.0,38,0.00,,SKC,0.00,0.00,VWS V14.00,2013-08-01 02:53:00,
2013-07-31 21:58:00,88.9,60.0,29.61,ESE,107,6.0,9.0,38,0.00,,SKC,0.00,0.00,VWS V14.00,2013-08-01 02:58:00,
2013-07-31 22:00:00,88.8,59.9,29.61,ESE,107,4.0,9.0,38,0.00,,SKC,0.00,0.00,VWS V14.01,2013-08-01 03:00:00,
2013-07-31 22:03:00,88.8,59.9,29.61,ESE,107,1.0,7.0,38,0.00,,SKC,0.00,0.00,VWS V14.00,2013-08-01 03:03:00,
2013-07-31 22:08:00,88.6,59.8,29.61,ESE,107,4.0,7.0,38,0.00,,SKC,0.00,0.00,VWS V14.00,2013-08-01 03:08:00,
2013-07-31 22:10:00,88.4,59.6,29.61,ESE,107,1.0,8.0,38,0.00,,SKC,0.00,0.00,VWS V14.01,2013-08-01 03:10:00,
2013-07-31 22:13:00,88.4,59.6,29.61,ESE,107,4.0,7.0,38,0.00,,SKC,0.00,0.00,VWS V14.00,2013-08-01 03:13:00,
2013-07-31 22:18:00,88.3,59.5,29.61,ESE,107,4.0,7.0,38,0.00,,SKC,0.00,0.00,VWS V14.00,2013-08-01 03:18:00,
2013-07-31 22:20:00,88.2,59.4,29.61,ESE,107,5.0,7.0,38,0.00,,SKC,0.00,0.00,VWS V14.01,2013-08-01 03:20:00,
2013-07-31 22:23:00,88.2,59.4,29.61,ESE,107,5.0,6.0,38,0.00,,SKC,0.00,0.00,VWS V14.00,2013-08-01 03:23:00,
2013-07-31 22:28:00,88.1,59.3,29.62,ESE,107,1.0,7.0,38,0.00,,SKC,0.00,0.00,VWS V14.00,2013-08-01 03:28:00,
2013-07-31 22:30:00,88.0,59.2,29.62,ESE,107,2.0,7.0,38,0.00,,SKC,0.00,0.00,VWS V14.01,2013-08-01 03:30:00,
2013-07-31 22:33:00,88.0,59.2,29.62,ESE,107,5.0,7.0,38,0.00,,SKC,0.00,0.00,VWS V14.00,2013-08-01 03:33:00,
2013-07-31 22:38:00,87.9,59.2,29.62,ESE,107,4.0,7.0,38,0.00,,SKC,0.00,0.00,VWS V14.00,2013-08-01 03:38:00,
2013-07-31 22:40:00,87.7,59.0,29.62,ESE,107,4.0,7.0,38,0.00,,SKC,0.00,0.00,VWS V14.01,2013-08-01 03:40:00,
2013-07-31 22:43:00,87.7,59.0,29.63,ESE,107,4.0,5.0,38,0.00,,SKC,0.00,0.00,VWS V14.00,2013-08-01 03:43:00,
2013-07-31 22:48:00,87.6,58.1,29.62,ESE,107,0.0,7.0,37,0.00,,SKC,0.00,0.00,VWS V14.00,2013-08-01 03:48:00,
2013-07-31 22:50:00,87.5,58.0,29.62,ESE,107,1.0,7.0,37,0.00,,SKC,0.00,0.00,VWS V14.01,2013-08-01 03:50:00,
2013-07-31 22:53:00,87.5,58.0,29.62,ESE,107,5.0,7.0,37,0.00,,SKC,0.00,0.00,VWS V14.00,2013-08-01 03:53:00,
2013-07-31 22:58:00,87.4,58.0,29.62,ESE,107,5.0,7.0,37,0.00,,SKC,0.00,0.00,VWS V14.00,2013-08-01 03:58:00,
2013-07-31 23:00:00,87.4,58.0,29.62,ESE,107,4.0,7.0,37,0.00,,SKC,0.00,0.00,VWS V14.01,2013-08-01 04:00:00,
2013-07-31 23:01:00,87.4,58.0,29.63,ESE,107,5.0,7.0,37,0.00,,SKC,0.00,0.00,VWS V14.00,2013-08-01 04:01:00,
2013-07-31 23:02:00,87.4,58.0,29.62,ESE,107,6.0,6.0,37,0.00,,SKC,0.00,0.00,VWS V14.00,2013-08-01 04:02:00,
2013-07-31 23:07:00,87.3,57.9,29.63,ESE,107,2.0,6.0,37,0.00,,SKC,0.00,0.00,VWS V14.00,2013-08-01 04:07:00,
2013-07-31 23:10:00,87.2,57.8,29.63,ESE,107,5.0,6.0,37,0.00,,SKC,0.00,0.00,VWS V14.01,2013-08-01 04:10:00,
2013-07-31 23:12:00,87.2,57.8,29.63,ESE,107,2.0,5.0,37,0.00,,SKC,0.00,0.00,VWS V14.00,2013-08-01 04:12:00,
2013-07-31 23:17:00,87.2,57.8,29.62,ESE,107,7.0,7.0,37,0.00,,SKC,0.00,0.00,VWS V14.00,2013-08-01 04:17:00,
2013-07-31 23:20:00,87.2,57.8,29.62,ESE,107,5.0,8.0,37,0.00,,SKC,0.00,0.00,VWS V14.01,2013-08-01 04:20:00,
2013-07-31 23:22:00,87.1,57.7,29.62,ESE,107,5.0,6.0,37,0.00,,SKC,0.00,0.00,VWS V14.00,2013-08-01 04:22:00,
2013-07-31 23:27:00,87.1,57.7,29.62,ESE,107,0.0,6.0,37,0.00,,SKC,0.00,0.00,VWS V14.00,2013-08-01 04:27:00,
2013-07-31 23:30:00,87.1,57.7,29.63,ESE,107,0.0,6.0,37,0.00,,SKC,0.00,0.00,VWS V14.01,2013-08-01 04:30:00,
2013-07-31 23:32:00,87.1,57.7,29.63,ESE,107,0.0,1.0,37,0.00,,SKC,0.00,0.00,VWS V14.00,2013-08-01 04:32:00,
2013-07-31 23:37:00,86.9,57.5,29.62,ESE,107,2.0,7.0,37,0.00,,SKC,0.00,0.00,VWS V14.00,2013-08-01 04:37:00,
2013-07-31 23:40:00,86.8,57.4,29.62,ESE,107,5.0,7.0,37,0.00,,SKC,0.00,0.00,VWS V14.01,2013-08-01 04:40:00,
2013-07-31 23:42:00,86.8,57.4,29.62,ESE,107,6.0,7.0,37,0.00,,SKC,0.00,0.00,VWS V14.00,2013-08-01 04:42:00,
2013-07-31 23:47:00,86.7,57.3,29.62,ESE,107,6.0,7.0,37,0.00,,SKC,0.00,0.00,VWS V14.00,2013-08-01 04:47:00,
2013-07-31 23:50:00,86.6,58.0,29.63,ESE,107,2.0,7.0,38,0.00,,SKC,0.00,0.00,VWS V14.01,2013-08-01 04:50:00,
2013-07-31 23:52:00,86.6,58.0,29.63,ESE,107,4.0,6.0,38,0.00,,SKC,0.00,0.00,VWS V14.00,2013-08-01 04:52:00,
2013-07-31 23:57:00,86.5,57.9,29.64,ESE,107,0.0,7.0,38,0.00,,SKC,0.00,0.00,VWS V14.00,2013-08-01 04:57:00,